Time;durP1;ratioP1;P1;durP2;ratioP2;P2;SDS_P1;SDS_P2;PMS_P1;PMS_P2;Temp;Humidity;BMP_temperature;BMP_pressure;BME280_temperature;BME280_humidity;BME280_pressure;Samples;Min_cycle;Max_cycle;Signal;HPM_P1;HPM_P2
2021/11/08 00:01:04;;;;;;;;;;;;;;;0.61;69.07;95767.47;5000385;28;19926;-66
2021/11/08 00:03:32;;;;;;;;;;;;;;;0.57;68.63;95772.94;4999785;28;19988;-67
2021/11/08 00:06:00;;;;;;;;;;;;;;;0.19;70.49;95781.75;5000352;28;19975;-67
2021/11/08 00:08:27;;;;;;;;;;;;;;;0.40;70.36;95779.41;4999463;28;20024;-66
2021/11/08 00:10:52;;;;;;;;;;;;;;;0.84;68.66;95776.28;4998379;28;19921;-66
2021/11/08 00:13:18;;;;;;;;;;;;;;;1.61;65.83;95772.31;4987462;28;19921;-67
2021/11/08 00:21:04;;;;;;;;;;;;;;;1.71;64.72;95756.69;4999144;28;20387;-67
2021/11/08 00:23:29;;;;;;;;;;;;;;;1.21;67.28;95756.97;4998914;28;20311;-67
2021/11/08 00:25:55;;;;;;;;;;;;;;;1.41;66.16;95754.59;4997596;28;19932;-67
2021/11/08 00:28:20;;;;;;;;;;;;;;;1.24;66.52;95759.34;4998628;28;20408;-66
2021/11/08 00:30:46;;;;;;;;;;;;;;;0.76;68.14;95765.50;4999172;28;19921;-65
2021/11/08 00:33:17;;;;;;;;;;;;;;;0.78;68.89;95771.50;4998378;28;19962;-67
2021/11/08 00:35:44;;;;;;;;;;;;;;;0.75;68.69;95772.53;4999324;28;19928;-67
2021/11/08 00:38:09;;;;;;;;;;;;;;;0.87;68.22;95769.97;4999756;28;19932;-71
2021/11/08 00:40:34;;;;;;;;;;;;;;;0.88;68.36;95766.41;4999447;28;19921;-67
2021/11/08 00:43:00;;;;;;;;;;;;;;;0.62;69.08;95767.38;4999244;28;19964;-67
2021/11/08 00:45:25;;;;;;;;;;;;;;;0.28;70.12;95777.66;4998396;28;19917;-66
2021/11/08 00:47:51;;;;;;;;;;;;;;;0.38;69.83;95777.84;4996857;28;19921;-67
2021/11/08 00:50:16;;;;;;;;;;;;;;;-0.13;71.61;95783.06;4999754;28;19929;-67
2021/11/08 00:52:42;;;;;;;;;;;;;;;0.34;70.09;95780.66;4997541;28;20022;-67
2021/11/08 00:55:07;;;;;;;;;;;;;;;0.23;70.31;95788.47;4998888;28;19960;-67
2021/11/08 00:57:34;;;;;;;;;;;;;;;0.07;71.74;95784.31;5012450;28;20318;-68
2021/11/08 01:00:00;;;;;;;;;;;;;;;0.16;70.87;95781.97;4999126;28;20282;-67
2021/11/08 01:02:27;;;;;;;;;;;;;;;0.05;70.70;95780.13;5000830;28;19913;-68
2021/11/08 01:04:52;;;;;;;;;;;;;;;0.41;69.60;95783.69;5002842;28;19965;-67
2021/11/08 01:07:18;;;;;;;;;;;;;;;0.33;69.96;95792.09;5002339;28;19971;-67
2021/11/08 01:09:44;;;;;;;;;;;;;;;0.76;68.02;95794.34;5003134;28;19921;-67
2021/11/08 01:12:10;;;;;;;;;;;;;;;0.46;69.48;95793.84;4999089;28;20378;-68
2021/11/08 01:14:35;;;;;;;;;;;;;;;0.71;68.55;95787.66;5002618;28;20263;-68
2021/11/08 01:17:00;;;;;;;;;;;;;;;0.76;68.04;95789.94;5001674;28;20102;-67
2021/11/08 01:19:27;;;;;;;;;;;;;;;0.21;70.22;95792.97;5002613;28;20379;-67
2021/11/08 01:21:53;;;;;;;;;;;;;;;0.54;69.17;95795.91;5001800;28;19975;-67
2021/11/08 01:24:20;;;;;;;;;;;;;;;0.31;70.10;95795.78;5002851;28;19999;-68
2021/11/08 01:26:47;;;;;;;;;;;;;;;0.39;69.88;95803.94;5000764;28;19913;-68
2021/11/08 01:29:12;;;;;;;;;;;;;;;0.92;68.09;95802.75;5002477;28;19922;-68
2021/11/08 01:31:38;;;;;;;;;;;;;;;1.22;67.36;95800.59;5001096;28;19948;-68
2021/11/08 01:34:03;;;;;;;;;;;;;;;1.47;67.01;95804.81;5003069;28;19914;-68
2021/11/08 01:36:34;;;;;;;;;;;;;;;1.77;64.65;95805.25;5000854;28;20004;-67
2021/11/08 01:39:06;;;;;;;;;;;;;;;2.09;63.90;95799.31;5000837;28;19921;-68
2021/11/08 01:41:32;;;;;;;;;;;;;;;1.83;64.70;95801.31;5002097;28;19933;-67
2021/11/08 01:43:57;;;;;;;;;;;;;;;2.08;63.17;95810.75;5017648;28;19921;-68
2021/11/08 01:46:22;;;;;;;;;;;;;;;1.76;64.44;95808.84;5001340;28;19976;-68
2021/11/08 01:48:48;;;;;;;;;;;;;;;2.06;63.47;95804.81;5002220;28;20001;-67
2021/11/08 01:51:14;;;;;;;;;;;;;;;1.34;65.54;95815.44;5002007;28;20305;-68
2021/11/08 01:53:40;;;;;;;;;;;;;;;1.36;65.79;95823.16;5002762;28;19921;-68
2021/11/08 01:56:05;;;;;;;;;;;;;;;1.53;65.32;95816.69;5001890;28;20390;-67
2021/11/08 01:58:30;;;;;;;;;;;;;;;1.39;65.65;95822.13;5000838;28;20014;-67
2021/11/08 02:00:56;;;;;;;;;;;;;;;1.44;65.58;95819.97;5000620;28;20394;-67
2021/11/08 02:03:21;;;;;;;;;;;;;;;1.36;65.90;95824.00;5002193;28;20119;-68
2021/11/08 02:05:47;;;;;;;;;;;;;;;1.39;65.95;95824.75;5002443;28;20405;-68
2021/11/08 02:08:12;;;;;;;;;;;;;;;1.80;64.46;95818.16;4996033;28;19926;-68
2021/11/08 02:10:38;;;;;;;;;;;;;;;1.84;64.65;95821.41;5001949;28;19925;-68
2021/11/08 02:13:04;;;;;;;;;;;;;;;2.24;63.27;95820.91;5000780;28;20157;-72
2021/11/08 02:15:30;;;;;;;;;;;;;;;2.12;63.04;95814.81;5000618;28;19921;-68
2021/11/08 02:17:55;;;;;;;;;;;;;;;2.25;62.93;95819.13;5004539;28;19917;-68
2021/11/08 02:20:21;;;;;;;;;;;;;;;2.31;62.63;95829.13;5001832;28;19929;-68
2021/11/08 02:22:49;;;;;;;;;;;;;;;1.69;64.73;95826.88;5000187;28;20048;-67
2021/11/08 02:25:15;;;;;;;;;;;;;;;1.98;63.53;95823.78;5002269;28;19918;-68
2021/11/08 02:27:43;;;;;;;;;;;;;;;1.70;64.65;95827.72;5000238;28;19917;-68
2021/11/08 02:30:09;;;;;;;;;;;;;;;1.90;64.07;95825.34;5001842;28;20138;-69
2021/11/08 02:32:35;;;;;;;;;;;;;;;2.06;63.41;95824.97;5000313;28;19922;-68
2021/11/08 02:35:01;;;;;;;;;;;;;;;1.58;65.35;95827.69;5001634;28;19980;-68
2021/11/08 02:37:26;;;;;;;;;;;;;;;1.46;65.89;95828.56;5000398;28;20118;-68
2021/11/08 02:39:53;;;;;;;;;;;;;;;1.70;64.64;95825.09;5001797;28;20004;-68
2021/11/08 02:42:18;;;;;;;;;;;;;;;1.56;65.27;95820.84;5001884;28;19966;-67
2021/11/08 02:44:43;;;;;;;;;;;;;;;1.48;65.12;95818.78;5001481;28;20000;-68
2021/11/08 02:47:08;;;;;;;;;;;;;;;1.15;66.90;95812.47;5001598;28;19998;-67
2021/11/08 02:49:39;;;;;;;;;;;;;;;1.00;67.89;95823.19;5000399;28;19970;-67
2021/11/08 02:52:07;;;;;;;;;;;;;;;1.27;66.97;95816.84;5002250;28;20293;-67
2021/11/08 02:54:36;;;;;;;;;;;;;;;1.53;66.23;95824.56;5001154;28;19974;-68
2021/11/08 02:57:01;;;;;;;;;;;;;;;1.54;66.12;95818.38;4987779;28;20105;-68
2021/11/08 02:59:29;;;;;;;;;;;;;;;1.17;67.06;95823.72;5003537;28;19924;-67
2021/11/08 03:01:55;;;;;;;;;;;;;;;1.15;67.14;95820.34;5005007;28;19975;-68
2021/11/08 03:04:28;;;;;;;;;;;;;;;0.59;69.39;95820.00;5003593;28;19925;-66
2021/11/08 03:06:53;;;;;;;;;;;;;;;0.52;69.52;95817.00;5004810;28;19924;-67
2021/11/08 03:09:20;;;;;;;;;;;;;;;0.78;68.76;95809.00;5003308;28;20289;-66
2021/11/08 03:11:45;;;;;;;;;;;;;;;0.68;69.10;95811.47;5004403;28;19926;-67
2021/11/08 03:14:14;;;;;;;;;;;;;;;0.93;68.47;95806.22;5005306;28;20221;-67
2021/11/08 03:16:54;;;;;;;;;;;;;;;0.87;68.66;95806.66;5004113;28;19922;-67
2021/11/08 03:19:42;;;;;;;;;;;;;;;1.26;67.19;95815.16;5004755;28;19921;-67
2021/11/08 03:22:11;;;;;;;;;;;;;;;0.95;68.24;95815.66;4994103;28;19972;-67
2021/11/08 03:24:42;;;;;;;;;;;;;;;0.63;69.47;95825.84;5002759;28;20156;-68
2021/11/08 03:27:57;;;;;;;;;;;;;;;1.43;66.91;95826.19;4990168;28;19925;-67
2021/11/08 03:29:58;;;;;;;;;;;;;;;0.83;69.15;95830.50;4986948;28;19925;-67
2021/11/08 03:32:23;;;;;;;;;;;;;;;1.36;67.17;95826.63;5004211;28;19921;-67
2021/11/08 03:35:03;;;;;;;;;;;;;;;1.93;65.42;95830.34;5003048;28;20018;-68
2021/11/08 03:37:29;;;;;;;;;;;;;;;1.93;65.51;95832.97;5003250;28;19922;-67
2021/11/08 03:39:56;;;;;;;;;;;;;;;2.22;63.87;95835.13;5003012;28;19917;-67
2021/11/08 03:42:21;;;;;;;;;;;;;;;2.16;64.73;95830.34;5004225;28;19960;-68
2021/11/08 03:44:46;;;;;;;;;;;;;;;2.18;64.16;95831.06;5004178;28;19956;-67
2021/11/08 03:47:12;;;;;;;;;;;;;;;1.84;64.89;95832.72;5004063;28;20126;-67
2021/11/08 03:49:37;;;;;;;;;;;;;;;1.76;64.96;95840.34;5004531;28;19952;-68
2021/11/08 03:52:03;;;;;;;;;;;;;;;1.87;64.60;95835.13;5004203;28;19922;-67
2021/11/08 03:54:28;;;;;;;;;;;;;;;1.84;64.90;95850.28;4995235;28;19921;-67
2021/11/08 03:56:53;;;;;;;;;;;;;;;2.03;64.49;95851.47;5003539;28;19925;-67
2021/11/08 03:59:19;;;;;;;;;;;;;;;2.24;64.18;95846.34;4994323;28;19980;-67
2021/11/08 04:01:44;;;;;;;;;;;;;;;2.43;62.68;95851.00;5015916;28;19953;-68
2021/11/08 04:04:09;;;;;;;;;;;;;;;2.73;62.11;95853.94;5003783;28;20275;-68
2021/11/08 04:06:35;;;;;;;;;;;;;;;2.59;62.66;95871.63;5002300;28;19964;-67
2021/11/08 04:09:00;;;;;;;;;;;;;;;2.67;61.58;95863.16;5002312;28;19913;-68
2021/11/08 04:11:27;;;;;;;;;;;;;;;2.75;61.78;95875.66;5003280;28;20315;-68
2021/11/08 04:13:52;;;;;;;;;;;;;;;3.03;61.16;95866.41;5002719;28;19960;-68
2021/11/08 04:16:19;;;;;;;;;;;;;;;2.57;62.67;95860.41;5003815;28;20278;-67
2021/11/08 04:18:51;;;;;;;;;;;;;;;2.35;63.03;95872.63;5003515;28;20028;-68
2021/11/08 04:21:16;;;;;;;;;;;;;;;2.61;63.12;95874.16;5003346;28;19925;-67
2021/11/08 04:23:42;;;;;;;;;;;;;;;2.96;61.89;95874.94;5003716;28;19945;-67
2021/11/08 04:26:08;;;;;;;;;;;;;;;2.69;61.53;95878.81;5003686;28;19917;-68
2021/11/08 04:28:34;;;;;;;;;;;;;;;2.91;61.83;95881.41;5003228;28;20332;-68
2021/11/08 04:31:00;;;;;;;;;;;;;;;3.22;60.81;95874.59;5003427;28;19929;-68
2021/11/08 04:33:42;;;;;;;;;;;;;;;2.82;61.06;95883.94;5003911;28;19970;-68
2021/11/08 04:47:13;;;;;;;;;;;;;;;3.36;59.23;95874.31;5001664;28;20290;-67
2021/11/08 04:52:20;;;;;;;;;;;;;;;3.64;58.22;95889.66;5002986;28;20067;-68
2021/11/08 04:57:59;;;;;;;;;;;;;;;3.59;59.36;95890.03;5002989;28;19987;-68
2021/11/08 05:22:47;;;;;;;;;;;;;;;4.47;56.94;95874.84;5002970;28;20349;-68
2021/11/08 05:30:15;;;;;;;;;;;;;;;4.58;55.44;95877.38;4993369;28;19922;-68
2021/11/08 05:32:41;;;;;;;;;;;;;;;4.27;55.59;95880.88;5001840;28;19929;-68
2021/11/08 05:35:07;;;;;;;;;;;;;;;4.64;55.23;95876.84;5000945;28;20416;-67
2021/11/08 05:37:34;;;;;;;;;;;;;;;4.71;55.22;95878.00;5001288;28;20223;-67
2021/11/08 05:40:11;;;;;;;;;;;;;;;4.67;55.43;95884.50;5001025;28;20551;-68
2021/11/08 05:42:36;;;;;;;;;;;;;;;4.62;55.88;95883.22;5000666;28;19980;-68
2021/11/08 05:45:02;;;;;;;;;;;;;;;4.81;55.19;95887.72;5001159;28;20406;-68
2021/11/08 05:47:28;;;;;;;;;;;;;;;4.91;54.96;95883.31;5002265;28;19967;-65
2021/11/08 05:49:54;;;;;;;;;;;;;;;4.93;54.73;95891.09;5002725;28;19952;-65
2021/11/08 05:52:19;;;;;;;;;;;;;;;4.87;54.00;95892.47;5001056;28;19933;-65
2021/11/08 05:54:46;;;;;;;;;;;;;;;4.70;54.76;95897.41;4992919;28;20382;-67
2021/11/08 06:00:25;;;;;;;;;;;;;;;4.36;55.60;95897.72;4990438;28;20024;-68
2021/11/08 06:51:39;;;;;;;;;;;;;;;4.10;56.23;95969.28;5000438;28;19921;-68
2021/11/08 06:54:04;;;;;;;;;;;;;;;3.85;56.58;95967.84;4998686;28;20406;-68
2021/11/08 06:56:35;;;;;;;;;;;;;;;3.74;57.83;95971.38;5000520;28;20410;-68
2021/11/08 06:59:03;;;;;;;;;;;;;;;3.75;57.21;95971.25;4996629;28;19926;-68
2021/11/08 07:01:28;;;;;;;;;;;;;;;3.64;58.00;95972.09;4999711;28;20267;-68
2021/11/08 07:03:54;;;;;;;;;;;;;;;3.67;57.35;95979.75;5000458;28;19971;-68
2021/11/08 07:06:19;;;;;;;;;;;;;;;3.70;58.70;95988.38;4999795;28;20051;-67
2021/11/08 07:08:44;;;;;;;;;;;;;;;3.65;57.59;95979.06;5000030;28;20103;-68
2021/11/08 07:11:10;;;;;;;;;;;;;;;3.51;57.91;95989.88;5000776;28;20004;-68
2021/11/08 07:13:36;;;;;;;;;;;;;;;3.66;58.03;95996.53;5000798;28;19921;-67
2021/11/08 07:16:01;;;;;;;;;;;;;;;3.62;57.66;95992.47;5000739;28;19944;-67
2021/11/08 07:18:26;;;;;;;;;;;;;;;3.43;58.66;95996.56;4998217;28;19930;-68
2021/11/08 07:20:52;;;;;;;;;;;;;;;3.30;58.85;95996.72;5000845;28;19930;-68
2021/11/08 07:23:18;;;;;;;;;;;;;;;3.42;58.58;95999.31;5000564;28;20327;-68
2021/11/08 07:25:43;;;;;;;;;;;;;;;3.63;58.14;96009.09;4987891;28;19925;-68
2021/11/08 07:28:11;;;;;;;;;;;;;;;3.90;56.95;96000.75;4982042;28;20484;-68
2021/11/08 07:30:38;;;;;;;;;;;;;;;3.62;57.58;95999.53;4998308;28;19929;-69
2021/11/08 07:33:03;;;;;;;;;;;;;;;3.88;56.68;96013.19;5000036;28;20450;-68
2021/11/08 07:35:29;;;;;;;;;;;;;;;4.15;55.88;96011.06;4999211;28;19933;-67
2021/11/08 07:37:54;;;;;;;;;;;;;;;3.71;57.52;96016.38;4999580;28;19929;-69
2021/11/08 07:40:19;;;;;;;;;;;;;;;4.30;56.00;96008.94;4999844;28;19979;-68
2021/11/08 07:42:44;;;;;;;;;;;;;;;4.48;55.54;96016.25;5000125;28;19921;-69
2021/11/08 07:45:10;;;;;;;;;;;;;;;4.43;55.93;96017.47;4999060;28;19925;-68
2021/11/08 07:47:35;;;;;;;;;;;;;;;4.15;56.25;96022.41;4999082;28;19948;-68
2021/11/08 07:50:00;;;;;;;;;;;;;;;4.12;56.86;96024.50;5000016;28;19929;-69
2021/11/08 07:52:26;;;;;;;;;;;;;;;3.74;58.13;96030.13;4998362;28;20320;-69
2021/11/08 07:54:51;;;;;;;;;;;;;;;3.88;57.80;96034.28;4999043;28;19933;-69
2021/11/08 07:57:16;;;;;;;;;;;;;;;3.74;57.99;96029.31;4998556;28;20180;-69
2021/11/08 07:59:41;;;;;;;;;;;;;;;3.64;58.56;96030.03;4998861;28;19925;-69
2021/11/08 08:02:07;;;;;;;;;;;;;;;3.89;57.82;96029.84;5000638;28;20394;-68
2021/11/08 08:04:32;;;;;;;;;;;;;;;4.32;56.78;96025.47;4998779;28;19961;-69
2021/11/08 08:06:57;;;;;;;;;;;;;;;3.56;58.86;96019.28;4990295;28;20173;-69
2021/11/08 08:09:23;;;;;;;;;;;;;;;4.11;56.33;96023.63;4997657;28;19929;-69
2021/11/08 08:11:49;;;;;;;;;;;;;;;4.02;56.62;96021.78;4997584;28;19997;-68
2021/11/08 08:14:16;;;;;;;;;;;;;;;4.41;56.18;96022.06;4999847;28;20024;-67
2021/11/08 08:16:41;;;;;;;;;;;;;;;4.51;55.81;96019.47;4997883;28;20382;-67
2021/11/08 08:19:06;;;;;;;;;;;;;;;4.88;55.27;96014.66;4998866;28;19930;-68
2021/11/08 08:21:32;;;;;;;;;;;;;;;3.58;57.29;96021.81;4998463;28;20369;-68
2021/11/08 08:23:58;;;;;;;;;;;;;;;4.66;54.80;96019.97;4998736;28;20158;-68
2021/11/08 08:26:24;;;;;;;;;;;;;;;5.29;53.94;96017.31;4998570;28;20249;-68
2021/11/08 08:28:49;;;;;;;;;;;;;;;5.42;53.12;96012.66;4997888;28;19948;-68
2021/11/08 08:31:15;;;;;;;;;;;;;;;5.36;52.62;96015.81;4997476;28;19922;-69
2021/11/08 08:33:40;;;;;;;;;;;;;;;5.56;51.96;96018.50;4998881;28;19925;-69
2021/11/08 08:36:05;;;;;;;;;;;;;;;5.39;52.57;96027.91;4998494;28;20393;-68
2021/11/08 08:38:32;;;;;;;;;;;;;;;5.71;52.08;96025.06;4998023;28;19934;-69
2021/11/08 08:40:57;;;;;;;;;;;;;;;5.16;53.18;96028.97;4997138;28;19925;-69
2021/11/08 08:43:24;;;;;;;;;;;;;;;5.27;53.12;96032.47;4997909;28;19925;-68
2021/11/08 08:45:49;;;;;;;;;;;;;;;4.95;54.15;96036.91;4999043;28;19926;-69
2021/11/08 08:48:15;;;;;;;;;;;;;;;5.12;53.94;96042.56;4998247;28;20287;-69
2021/11/08 08:50:40;;;;;;;;;;;;;;;4.39;56.08;96046.88;4998062;28;19925;-68
2021/11/08 08:53:05;;;;;;;;;;;;;;;4.61;55.33;96043.25;4997566;28;20545;-68
2021/11/08 08:55:31;;;;;;;;;;;;;;;4.31;55.39;96047.50;4997854;28;19933;-67
2021/11/08 08:57:56;;;;;;;;;;;;;;;4.53;53.68;96051.00;4994671;28;20000;-68
2021/11/08 09:00:22;;;;;;;;;;;;;;;4.40;55.18;96051.19;4997989;28;19932;-68
2021/11/08 09:02:50;;;;;;;;;;;;;;;4.52;55.02;96068.59;4995902;28;20584;-69
2021/11/08 09:05:16;;;;;;;;;;;;;;;4.60;54.11;96069.75;4996440;28;20325;-69
2021/11/08 09:07:42;;;;;;;;;;;;;;;4.22;56.21;96072.81;5010850;28;20225;-69
2021/11/08 09:10:07;;;;;;;;;;;;;;;4.31;55.60;96081.78;4997003;28;19925;-68
2021/11/08 09:12:32;;;;;;;;;;;;;;;3.98;56.05;96075.69;4996484;28;20242;-69
2021/11/08 09:14:58;;;;;;;;;;;;;;;4.11;55.46;96076.34;4998216;28;20370;-69
2021/11/08 09:17:23;;;;;;;;;;;;;;;4.10;55.25;96074.69;4997927;28;19929;-69
2021/11/08 09:19:48;;;;;;;;;;;;;;;4.53;54.42;96070.25;4994613;28;20389;-69
2021/11/08 09:22:14;;;;;;;;;;;;;;;5.03;53.43;96071.38;4997692;28;20250;-69
2021/11/08 09:24:39;;;;;;;;;;;;;;;5.37;53.35;96069.47;4997749;28;19925;-69
2021/11/08 09:27:05;;;;;;;;;;;;;;;5.45;52.43;96067.00;4997290;28;19956;-69
2021/11/08 09:29:30;;;;;;;;;;;;;;;5.51;52.65;96074.38;4998618;28;20077;-68
2021/11/08 09:31:55;;;;;;;;;;;;;;;4.88;53.51;96078.81;4998579;28;19996;-69
2021/11/08 09:34:22;;;;;;;;;;;;;;;5.61;52.89;96074.38;4996870;28;20396;-69
2021/11/08 09:36:48;;;;;;;;;;;;;;;4.30;55.50;96080.09;4997712;28;19925;-67
2021/11/08 09:39:23;;;;;;;;;;;;;;;4.72;55.37;96079.28;4998063;28;19928;-69
2021/11/08 09:41:48;;;;;;;;;;;;;;;4.45;56.07;96086.75;4998477;28;20226;-69
2021/11/08 09:44:14;;;;;;;;;;;;;;;5.03;54.35;96081.13;4996610;28;20718;-69
2021/11/08 09:46:39;;;;;;;;;;;;;;;5.44;53.65;96084.63;4990961;28;20020;-69
2021/11/08 09:49:05;;;;;;;;;;;;;;;5.17;53.55;96078.16;4997810;28;19921;-69
2021/11/08 09:51:31;;;;;;;;;;;;;;;4.62;55.43;96081.84;4999577;28;20105;-69
2021/11/08 09:53:56;;;;;;;;;;;;;;;4.06;58.30;96084.63;4991898;28;19921;-68
2021/11/08 09:56:21;;;;;;;;;;;;;;;4.37;57.29;96091.81;4997735;28;20720;-69
2021/11/08 09:58:47;;;;;;;;;;;;;;;4.03;57.34;96095.44;4994784;28;19973;-69
2021/11/08 10:01:14;;;;;;;;;;;;;;;3.98;57.80;96087.03;4996916;28;20099;-69
2021/11/08 10:03:40;;;;;;;;;;;;;;;4.33;57.71;96096.50;5001418;28;20297;-69
2021/11/08 10:06:06;;;;;;;;;;;;;;;4.32;55.04;96102.75;5002262;28;20019;-69
2021/11/08 10:08:33;;;;;;;;;;;;;;;4.77;55.00;96100.00;5001000;28;19926;-69
2021/11/08 10:10:59;;;;;;;;;;;;;;;4.86;54.50;96099.22;4999353;28;20083;-69
2021/11/08 10:13:26;;;;;;;;;;;;;;;5.38;53.69;96098.41;5000302;28;19929;-69
2021/11/08 10:15:55;;;;;;;;;;;;;;;5.38;51.93;96100.19;5001022;28;20318;-69
2021/11/08 10:18:22;;;;;;;;;;;;;;;5.28;53.69;96105.44;4999587;28;20380;-69
2021/11/08 10:20:48;;;;;;;;;;;;;;;5.00;54.79;96099.84;5016127;28;19937;-69
2021/11/08 10:23:14;;;;;;;;;;;;;;;4.77;54.51;96103.47;5001431;28;19979;-69
2021/11/08 10:25:40;;;;;;;;;;;;;;;4.72;55.12;96100.38;5001790;28;20369;-68
2021/11/08 10:28:09;;;;;;;;;;;;;;;4.99;54.07;96106.09;5001140;28;19925;-69
2021/11/08 10:30:34;;;;;;;;;;;;;;;4.61;55.42;96108.34;5000399;28;19917;-69
2021/11/08 10:33:18;;;;;;;;;;;;;;;4.88;55.06;96101.72;4999143;28;19933;-69
2021/11/08 10:35:43;;;;;;;;;;;;;;;4.43;55.58;96101.03;5015454;28;19971;-69
2021/11/08 10:38:19;;;;;;;;;;;;;;;5.64;51.80;96083.88;4999339;28;20154;-69
2021/11/08 10:40:45;;;;;;;;;;;;;;;5.72;51.01;96087.50;5001104;28;19927;-71
2021/11/08 10:43:11;;;;;;;;;;;;;;;5.86;51.89;96082.81;4995694;28;20225;-69
2021/11/08 10:45:52;;;;;;;;;;;;;;;6.04;50.39;96079.47;4998702;28;19928;-70
2021/11/08 10:48:18;;;;;;;;;;;;;;;6.33;49.56;96070.72;4997288;28;19952;-69
2021/11/08 10:50:44;;;;;;;;;;;;;;;6.02;50.09;96073.50;4995884;28;19996;-69
2021/11/08 10:53:09;;;;;;;;;;;;;;;5.69;51.22;96069.28;5010083;28;19925;-69
2021/11/08 10:55:34;;;;;;;;;;;;;;;5.85;50.80;96070.56;4999746;28;19952;-69
2021/11/08 10:58:09;;;;;;;;;;;;;;;5.79;51.04;96082.53;4999010;28;19930;-69
2021/11/08 11:00:44;;;;;;;;;;;;;;;5.80;51.29;96086.81;4999351;28;19933;-69
2021/11/08 11:03:16;;;;;;;;;;;;;;;5.98;50.76;96096.72;5000852;28;19964;-68
2021/11/08 11:05:42;;;;;;;;;;;;;;;6.15;50.40;96089.09;4999685;28;19924;-69
2021/11/08 11:08:10;;;;;;;;;;;;;;;5.80;51.03;96094.75;4998988;28;20296;-69
2021/11/08 11:10:35;;;;;;;;;;;;;;;6.09;50.03;96090.47;4989652;28;20282;-69
2021/11/08 11:13:00;;;;;;;;;;;;;;;5.97;50.54;96082.69;5007194;28;20153;-70
2021/11/08 11:15:31;;;;;;;;;;;;;;;6.37;50.38;96078.22;4996990;28;19930;-69
2021/11/08 11:17:59;;;;;;;;;;;;;;;6.53;49.18;96084.78;5011396;28;19925;-68
2021/11/08 11:20:30;;;;;;;;;;;;;;;6.88;48.39;96087.81;5014941;28;19930;-69
2021/11/08 11:23:06;;;;;;;;;;;;;;;6.64;48.90;96087.28;4997886;28;19932;-69
2021/11/08 11:25:34;;;;;;;;;;;;;;;7.21;47.19;96088.25;4999801;28;19977;-69
2021/11/08 11:28:01;;;;;;;;;;;;;;;7.52;47.82;96082.69;4999229;28;19951;-71
2021/11/08 11:30:27;;;;;;;;;;;;;;;6.97;48.70;96092.22;5000096;28;20146;-69
2021/11/08 11:32:59;;;;;;;;;;;;;;;7.35;49.06;96084.28;5000324;28;20275;-69
2021/11/08 11:35:26;;;;;;;;;;;;;;;7.05;47.40;96088.03;4991193;28;20718;-69
2021/11/08 11:37:56;;;;;;;;;;;;;;;7.16;47.28;96079.91;4998705;28;19926;-69
2021/11/08 11:40:22;;;;;;;;;;;;;;;7.21;47.30;96088.25;4999908;28;19929;-69
2021/11/08 11:42:51;;;;;;;;;;;;;;;7.40;44.69;96086.50;4998990;28;20011;-69
2021/11/08 11:45:17;;;;;;;;;;;;;;;6.95;47.31;96093.34;4998026;28;20004;-69
2021/11/08 11:47:42;;;;;;;;;;;;;;;6.77;48.05;96084.34;4999272;28;20016;-68
2021/11/08 11:50:08;;;;;;;;;;;;;;;7.03;47.98;96077.59;4997934;28;19928;-68
2021/11/08 11:52:38;;;;;;;;;;;;;;;6.89;47.32;96086.81;5000215;28;19943;-68
2021/11/08 11:55:03;;;;;;;;;;;;;;;6.53;47.42;96086.59;4999063;28;20432;-67
2021/11/08 11:57:29;;;;;;;;;;;;;;;6.43;49.03;96074.19;4998562;28;20145;-68
2021/11/08 11:59:55;;;;;;;;;;;;;;;6.40;48.47;96082.41;4999637;28;19925;-69
2021/11/08 12:02:20;;;;;;;;;;;;;;;6.41;48.18;96076.16;4999834;28;19939;-68
2021/11/08 12:04:45;;;;;;;;;;;;;;;5.66;50.32;96082.75;4999982;28;19922;-68
2021/11/08 12:07:11;;;;;;;;;;;;;;;5.65;51.07;96081.09;4998579;28;20393;-68
2021/11/08 12:09:36;;;;;;;;;;;;;;;5.28;52.24;96081.66;5011133;28;19967;-68
2021/11/08 12:12:01;;;;;;;;;;;;;;;5.47;53.16;96076.44;4997565;28;19930;-68
2021/11/08 12:14:28;;;;;;;;;;;;;;;5.32;51.84;96080.44;4997671;28;20395;-68
2021/11/08 12:16:58;;;;;;;;;;;;;;;5.30;51.45;96080.56;4997258;28;19979;-67
2021/11/08 12:19:27;;;;;;;;;;;;;;;5.56;51.22;96073.97;4981365;28;19932;-67
2021/11/08 12:21:53;;;;;;;;;;;;;;;5.78;50.60;96080.81;4998474;28;19967;-67
2021/11/08 12:24:25;;;;;;;;;;;;;;;5.83;50.95;96072.50;5014046;28;19937;-68
2021/11/08 12:27:01;;;;;;;;;;;;;;;6.02;51.87;96065.56;4998398;28;19979;-68
2021/11/08 12:29:28;;;;;;;;;;;;;;;6.18;50.45;96080.88;4997383;28;21072;-68
2021/11/08 12:32:01;;;;;;;;;;;;;;;6.20;49.95;96073.66;4995514;28;19929;-68
2021/11/08 12:34:26;;;;;;;;;;;;;;;6.44;50.27;96080.31;4995729;28;19928;-68
2021/11/08 12:36:59;;;;;;;;;;;;;;;6.34;49.02;96064.44;4995373;28;19925;-68
2021/11/08 12:39:24;;;;;;;;;;;;;;;6.16;51.31;96067.81;4998830;28;20121;-68
2021/11/08 12:41:51;;;;;;;;;;;;;;;6.56;50.96;96078.41;4998127;28;19921;-68
2021/11/08 12:44:17;;;;;;;;;;;;;;;6.34;51.60;96081.16;4997611;28;20293;-68
2021/11/08 12:46:52;;;;;;;;;;;;;;;6.31;50.11;96080.59;4998585;28;19935;-69
2021/11/08 12:49:30;;;;;;;;;;;;;;;6.60;49.31;96077.97;4998365;28;19964;-68
2021/11/08 12:52:21;;;;;;;;;;;;;;;6.23;49.38;96086.59;4996678;28;19958;-68
2021/11/08 12:54:50;;;;;;;;;;;;;;;6.37;49.81;96074.75;4987413;28;20260;-68
2021/11/08 12:57:15;;;;;;;;;;;;;;;6.76;47.53;96061.50;4998159;28;20523;-68
2021/11/08 12:59:45;;;;;;;;;;;;;;;6.24;49.96;96075.88;4995947;28;20342;-68
2021/11/08 13:02:43;;;;;;;;;;;;;;;6.43;50.07;96068.88;4997909;28;20023;-72
2021/11/08 13:05:09;;;;;;;;;;;;;;;6.71;48.60;96070.84;5025580;28;19929;-73
2021/11/08 13:07:35;;;;;;;;;;;;;;;6.62;49.06;96075.16;4993771;28;19972;-73
2021/11/08 13:10:00;;;;;;;;;;;;;;;7.22;46.98;96075.84;4992293;28;19931;-72
2021/11/08 13:12:33;;;;;;;;;;;;;;;7.09;48.04;96078.81;4996984;28;20326;-73
2021/11/08 13:14:59;;;;;;;;;;;;;;;7.05;49.30;96072.16;4996885;28;19932;-73
2021/11/08 13:17:25;;;;;;;;;;;;;;;7.08;52.08;96074.50;4981416;28;19921;-73
2021/11/08 13:19:51;;;;;;;;;;;;;;;7.25;47.79;96075.56;4998459;28;19936;-73
2021/11/08 13:22:37;;;;;;;;;;;;;;;7.44;48.48;96069.34;4999296;28;19926;-73
2021/11/08 13:25:04;;;;;;;;;;;;;;;7.61;48.50;96077.47;4978107;28;19968;-74
2021/11/08 13:27:30;;;;;;;;;;;;;;;7.74;47.71;96062.06;4984155;28;19936;-73
2021/11/08 13:29:59;;;;;;;;;;;;;;;7.60;47.49;96065.22;5011527;28;19921;-76
2021/11/08 13:32:26;;;;;;;;;;;;;;;8.29;45.52;96062.13;5012935;28;20310;-75
2021/11/08 13:34:52;;;;;;;;;;;;;;;10.01;42.71;96058.91;4994692;28;20091;-75
2021/11/08 13:37:18;;;;;;;;;;;;;;;12.02;38.59;96050.34;4996670;28;19932;-76
2021/11/08 13:39:45;;;;;;;;;;;;;;;13.66;34.49;96047.34;4988788;28;19926;-76
2021/11/08 13:42:17;;;;;;;;;;;;;;;14.06;32.81;96049.69;4997716;28;20570;-76
2021/11/08 13:44:42;;;;;;;;;;;;;;;16.23;31.55;96046.53;4979217;28;19926;-75
2021/11/08 13:47:07;;;;;;;;;;;;;;;17.77;27.24;96049.31;5029051;28;20405;-77
2021/11/08 13:49:33;;;;;;;;;;;;;;;20.05;24.70;96052.22;4996462;28;19921;-74
2021/11/08 13:52:00;;;;;;;;;;;;;;;19.62;23.22;96056.69;5011944;28;20020;-74
2021/11/08 13:54:27;;;;;;;;;;;;;;;18.01;26.00;96057.72;4996592;28;19993;-73
2021/11/08 13:56:56;;;;;;;;;;;;;;;16.59;27.05;96052.59;4996914;28;19929;-72
2021/11/08 13:59:27;;;;;;;;;;;;;;;15.22;28.85;96057.66;4992182;28;19930;-74
2021/11/08 14:01:56;;;;;;;;;;;;;;;14.13;30.99;96048.91;5009329;28;19948;-71
2021/11/08 14:04:29;;;;;;;;;;;;;;;12.67;33.48;96047.38;4996162;28;20589;-74
2021/11/08 14:06:54;;;;;;;;;;;;;;;12.50;34.48;96044.03;4993924;28;19923;-73
2021/11/08 14:09:20;;;;;;;;;;;;;;;12.15;35.89;96049.81;4996368;28;19925;-74
2021/11/08 14:11:46;;;;;;;;;;;;;;;12.15;34.66;96048.97;4995945;28;19925;-73
2021/11/08 14:14:12;;;;;;;;;;;;;;;11.84;34.68;96045.28;4998393;28;20376;-75
2021/11/08 14:16:38;;;;;;;;;;;;;;;11.68;35.95;96050.69;4996915;28;19921;-74
2021/11/08 14:19:04;;;;;;;;;;;;;;;11.16;37.01;96050.25;4997241;28;19930;-73
2021/11/08 14:21:30;;;;;;;;;;;;;;;10.88;37.01;96046.94;4997819;28;20361;-75
2021/11/08 14:24:02;;;;;;;;;;;;;;;10.72;38.00;96044.31;4993288;28;19976;-75
2021/11/08 14:26:27;;;;;;;;;;;;;;;11.35;36.00;96057.84;4996409;28;19928;-74
2021/11/08 14:28:53;;;;;;;;;;;;;;;13.73;33.60;96047.41;4996249;28;19921;-75
2021/11/08 14:31:20;;;;;;;;;;;;;;;15.26;30.23;96052.72;4997275;28;20444;-75
2021/11/08 14:33:45;;;;;;;;;;;;;;;16.69;29.97;96049.50;4995118;28;19921;-74
2021/11/08 14:36:17;;;;;;;;;;;;;;;17.50;26.20;96052.09;4996224;28;20485;-74